Time;durP1;ratioP1;P1;durP2;ratioP2;P2;SDS_P1;SDS_P2;PMS_P1;PMS_P2;Temp;Humidity;BMP_temperature;BMP_pressure;BME280_temperature;BME280_humidity;BME280_pressure;Samples;Min_cycle;Max_cycle;Signal;HPM_P1;HPM_P2
2023/04/25 00:02:08;;;;;;;;;;;;;;;14.19;100.00;100898.38;5072717;28;19932;-54
2023/04/25 00:04:34;;;;;;;;;;;;;;;14.58;100.00;100899.06;5072718;28;19948;-54
2023/04/25 00:07:01;;;;;;;;;;;;;;;14.37;100.00;100900.28;5065844;28;19968;-53
2023/04/25 00:09:27;;;;;;;;;;;;;;;14.42;100.00;100900.44;5070674;28;19947;-53
2023/04/25 00:11:53;;;;;;;;;;;;;;;14.37;100.00;100894.91;5072618;28;19924;-53
2023/04/25 00:14:18;;;;;;;;;;;;;;;14.58;99.27;100900.94;5072659;28;19916;-54
2023/04/25 00:16:44;;;;;;;;;;;;;;;14.41;100.00;100901.50;5071652;28;19917;-54
2023/04/25 00:19:09;;;;;;;;;;;;;;;14.42;100.00;100907.72;5072051;28;19928;-52
2023/04/25 00:21:35;;;;;;;;;;;;;;;14.39;100.00;100913.50;5072623;28;20326;-53
2023/04/25 00:24:00;;;;;;;;;;;;;;;14.43;100.00;100914.75;5072643;28;19916;-55
2023/04/25 00:26:25;;;;;;;;;;;;;;;14.19;100.00;100912.63;5072077;28;19923;-50
2023/04/25 00:28:51;;;;;;;;;;;;;;;14.20;100.00;100927.72;5069012;28;19925;-51
2023/04/25 00:31:17;;;;;;;;;;;;;;;14.34;100.00;100920.38;5068961;28;19917;-50
2023/04/25 00:33:42;;;;;;;;;;;;;;;14.13;100.00;100918.88;5071078;28;19931;-52
2023/04/25 00:36:08;;;;;;;;;;;;;;;14.07;100.00;100922.44;5072463;28;19917;-53
2023/04/25 00:38:34;;;;;;;;;;;;;;;13.91;100.00;100923.75;5072168;28;19992;-55
2023/04/25 00:40:59;;;;;;;;;;;;;;;14.28;100.00;100928.47;5071464;28;19931;-49
2023/04/25 00:43:26;;;;;;;;;;;;;;;14.04;100.00;100928.22;5071892;28;19951;-50
2023/04/25 00:45:51;;;;;;;;;;;;;;;13.93;100.00;100926.25;5072308;28;19917;-53
2023/04/25 00:48:17;;;;;;;;;;;;;;;14.04;100.00;100931.75;5071994;28;19947;-52
2023/04/25 00:50:47;;;;;;;;;;;;;;;13.78;100.00;100930.03;5070408;28;19916;-50
2023/04/25 00:53:13;;;;;;;;;;;;;;;13.80;100.00;100933.31;5073734;28;19921;-52
2023/04/25 00:55:38;;;;;;;;;;;;;;;13.93;100.00;100928.94;5074850;28;19956;-56
2023/04/25 00:58:04;;;;;;;;;;;;;;;13.80;100.00;100929.81;5076195;28;20016;-52
2023/04/25 01:00:30;;;;;;;;;;;;;;;14.05;100.00;100935.25;5076110;28;19939;-53
2023/04/25 01:02:55;;;;;;;;;;;;;;;13.97;100.00;100922.91;5076294;28;19978;-52
2023/04/25 01:05:20;;;;;;;;;;;;;;;14.09;100.00;100931.13;5075159;28;19943;-50
2023/04/25 01:07:47;;;;;;;;;;;;;;;14.32;100.00;100927.84;5075482;28;19916;-53
2023/04/25 01:10:12;;;;;;;;;;;;;;;14.25;100.00;100926.22;5075901;28;19917;-51
2023/04/25 01:12:38;;;;;;;;;;;;;;;14.06;100.00;100923.47;5076196;28;19920;-55
2023/04/25 01:15:03;;;;;;;;;;;;;;;13.89;100.00;100929.38;5074967;28;19916;-54
2023/04/25 01:17:28;;;;;;;;;;;;;;;13.75;100.00;100938.53;5076166;28;19992;-50
2023/04/25 01:19:54;;;;;;;;;;;;;;;13.65;100.00;100930.91;5075727;28;19916;-51
2023/04/25 01:22:20;;;;;;;;;;;;;;;13.47;100.00;100932.44;5076045;28;19920;-54
2023/04/25 01:24:46;;;;;;;;;;;;;;;13.46;100.00;100929.97;5074474;28;19916;-51
2023/04/25 01:27:12;;;;;;;;;;;;;;;13.15;100.00;100934.19;5074970;28;19921;-54
2023/04/25 01:29:37;;;;;;;;;;;;;;;13.20;100.00;100931.69;5075142;28;19960;-56
2023/04/25 01:32:04;;;;;;;;;;;;;;;13.27;100.00;100939.72;5074678;28;19916;-51
2023/04/25 01:34:30;;;;;;;;;;;;;;;13.33;100.00;100941.56;5073806;28;19931;-54
2023/04/25 01:36:59;;;;;;;;;;;;;;;12.75;100.00;100946.63;5074947;28;19924;-53
2023/04/25 01:39:24;;;;;;;;;;;;;;;12.72;100.00;100944.34;5070458;28;19943;-55
2023/04/25 01:41:50;;;;;;;;;;;;;;;12.93;100.00;100945.16;5075301;28;19924;-54
2023/04/25 01:44:16;;;;;;;;;;;;;;;13.16;100.00;100946.56;5074699;28;19917;-55
2023/04/25 01:46:41;;;;;;;;;;;;;;;12.97;100.00;100954.44;5074678;28;19917;-53
2023/04/25 01:49:08;;;;;;;;;;;;;;;13.13;100.00;100949.66;5074303;28;19916;-55
2023/04/25 01:51:34;;;;;;;;;;;;;;;13.07;100.00;100961.22;5070244;28;19921;-51
2023/04/25 01:54:00;;;;;;;;;;;;;;;13.05;100.00;100959.56;5074095;28;19921;-52
2023/04/25 01:56:29;;;;;;;;;;;;;;;13.15;100.00;100958.34;5074718;28;19921;-50
2023/04/25 01:58:55;;;;;;;;;;;;;;;13.03;100.00;100961.66;5073937;28;19931;-51
2023/04/25 02:01:40;;;;;;;;;;;;;;;13.11;100.00;100957.94;5075053;28;19916;-54
2023/04/25 02:04:16;;;;;;;;;;;;;;;13.22;100.00;100959.16;5069449;28;19927;-53
2023/04/25 02:06:42;;;;;;;;;;;;;;;12.87;100.00;100970.13;5072895;28;19916;-52
2023/04/25 02:09:08;;;;;;;;;;;;;;;12.85;100.00;100970.34;5074155;28;20013;-52
2023/04/25 02:11:37;;;;;;;;;;;;;;;12.81;100.00;100968.28;5074137;28;19917;-51
2023/04/25 02:14:26;;;;;;;;;;;;;;;12.55;100.00;100972.63;5074662;28;19939;-54
2023/04/25 02:17:14;;;;;;;;;;;;;;;12.91;100.00;100971.34;5072628;28;19917;-53
2023/04/25 02:19:39;;;;;;;;;;;;;;;13.01;100.00;100971.78;5075079;28;19939;-54
2023/04/25 02:22:06;;;;;;;;;;;;;;;12.47;100.00;100974.47;5069938;28;20260;-53
2023/04/25 02:24:33;;;;;;;;;;;;;;;12.37;100.00;100975.91;5074904;28;19917;-56
2023/04/25 02:26:59;;;;;;;;;;;;;;;12.40;100.00;100978.97;5073984;28;19917;-54
2023/04/25 02:29:24;;;;;;;;;;;;;;;12.54;100.00;100977.13;5074977;28;19921;-54
2023/04/25 02:31:50;;;;;;;;;;;;;;;12.35;100.00;100969.91;5071898;28;19917;-49
2023/04/25 02:34:16;;;;;;;;;;;;;;;12.67;100.00;100979.00;5074398;28;19917;-54
2023/04/25 02:36:42;;;;;;;;;;;;;;;12.54;100.00;100979.00;5073846;28;19984;-51
2023/04/25 02:39:07;;;;;;;;;;;;;;;12.33;100.00;100980.84;5074416;28;19920;-53
2023/04/25 02:41:33;;;;;;;;;;;;;;;12.47;100.00;100989.72;5074264;28;19916;-51
2023/04/25 02:43:58;;;;;;;;;;;;;;;12.73;100.00;100988.94;5074419;28;19921;-53
2023/04/25 02:46:24;;;;;;;;;;;;;;;12.65;100.00;100991.78;5074319;28;19996;-55
2023/04/25 02:48:49;;;;;;;;;;;;;;;12.55;100.00;100981.47;5073561;28;19988;-56
2023/04/25 02:51:16;;;;;;;;;;;;;;;12.48;100.00;100973.44;5074133;28;19925;-54
2023/04/25 02:53:41;;;;;;;;;;;;;;;12.66;100.00;100981.91;5073115;28;20501;-51
2023/04/25 02:56:07;;;;;;;;;;;;;;;12.40;100.00;100984.34;5070974;28;19917;-52
2023/04/25 02:58:35;;;;;;;;;;;;;;;12.32;100.00;100992.59;5072328;28;20204;-50
2023/04/25 03:01:00;;;;;;;;;;;;;;;12.04;100.00;100989.00;5071707;28;19920;-54
2023/04/25 03:03:25;;;;;;;;;;;;;;;12.62;100.00;100987.69;5072641;28;19920;-53
2023/04/25 03:05:52;;;;;;;;;;;;;;;12.62;100.00;100986.84;5086236;28;19917;-54
2023/04/25 03:08:23;;;;;;;;;;;;;;;12.44;100.00;100984.78;5073040;28;19916;-55
2023/04/25 03:10:51;;;;;;;;;;;;;;;12.85;100.00;100983.78;5072252;28;19916;-55
2023/04/25 03:13:16;;;;;;;;;;;;;;;12.95;100.00;100982.50;5073488;28;19916;-51
2023/04/25 03:15:42;;;;;;;;;;;;;;;12.88;100.00;100990.56;5071534;28;19916;-51
2023/04/25 03:18:08;;;;;;;;;;;;;;;12.93;100.00;100993.47;5082609;28;19971;-54
2023/04/25 03:20:33;;;;;;;;;;;;;;;13.04;100.00;100990.16;5072677;28;19920;-56
2023/04/25 03:22:59;;;;;;;;;;;;;;;13.90;97.34;100990.16;5072793;28;19928;-53
2023/04/25 03:25:24;;;;;;;;;;;;;;;12.87;100.00;100988.91;5072323;28;19955;-55
2023/04/25 03:27:49;;;;;;;;;;;;;;;12.84;100.00;100987.50;5073117;28;19920;-57
2023/04/25 03:30:15;;;;;;;;;;;;;;;12.85;100.00;100985.63;5073324;28;19929;-55
2023/04/25 03:32:43;;;;;;;;;;;;;;;12.44;100.00;100985.59;5070716;28;19932;-54
2023/04/25 03:35:08;;;;;;;;;;;;;;;12.75;100.00;100986.88;5072084;28;19916;-52
2023/04/25 03:37:34;;;;;;;;;;;;;;;12.71;100.00;100982.94;5071562;28;19921;-54
2023/04/25 03:40:00;;;;;;;;;;;;;;;12.64;100.00;100992.03;5071727;28;19921;-55
2023/04/25 03:42:38;;;;;;;;;;;;;;;12.57;100.00;100987.47;5070872;28;19916;-53
2023/04/25 03:45:04;;;;;;;;;;;;;;;12.90;100.00;100988.50;5070852;28;19935;-50
2023/04/25 03:47:30;;;;;;;;;;;;;;;12.63;100.00;100988.50;5072357;28;19917;-55
2023/04/25 03:49:56;;;;;;;;;;;;;;;12.49;100.00;100993.03;5070964;28;19952;-50
2023/04/25 03:52:22;;;;;;;;;;;;;;;12.60;100.00;100994.28;5066552;28;20044;-54
2023/04/25 03:54:48;;;;;;;;;;;;;;;12.69;100.00;100993.06;5073080;28;19924;-51
2023/04/25 03:57:18;;;;;;;;;;;;;;;12.75;100.00;100999.44;5069048;28;19924;-53
2023/04/25 03:59:44;;;;;;;;;;;;;;;12.58;100.00;100997.19;5072981;28;19917;-52
2023/04/25 04:02:11;;;;;;;;;;;;;;;12.61;100.00;101006.66;5068957;28;19920;-55
2023/04/25 04:04:38;;;;;;;;;;;;;;;12.33;100.00;101007.66;5072579;28;19924;-55
2023/04/25 04:07:03;;;;;;;;;;;;;;;12.68;100.00;101017.41;5073651;28;19916;-56
2023/04/25 04:09:32;;;;;;;;;;;;;;;12.01;100.00;101015.41;5069275;28;19931;-53
2023/04/25 04:12:02;;;;;;;;;;;;;;;12.38;100.00;101015.91;5073537;28;19920;-54
2023/04/25 04:14:31;;;;;;;;;;;;;;;12.39;100.00;101020.25;5072859;28;19916;-51
2023/04/25 04:16:56;;;;;;;;;;;;;;;12.90;100.00;101012.66;5073399;28;19963;-54
2023/04/25 04:19:22;;;;;;;;;;;;;;;12.86;100.00;101011.41;5072713;28;19921;-58
2023/04/25 04:21:57;;;;;;;;;;;;;;;13.00;100.00;101021.13;5072155;28;19917;-55
2023/04/25 04:24:23;;;;;;;;;;;;;;;13.14;99.41;101018.41;5073058;28;19924;-53
2023/04/25 04:26:56;;;;;;;;;;;;;;;13.28;98.08;101021.94;5072644;28;19958;-53
2023/04/25 04:29:41;;;;;;;;;;;;;;;13.29;97.67;101023.59;5075803;28;19943;-54
2023/04/25 04:32:14;;;;;;;;;;;;;;;13.37;97.56;101022.53;5084019;28;19917;-53
2023/04/25 04:34:41;;;;;;;;;;;;;;;13.57;96.46;101023.34;5076511;28;19931;-55
2023/04/25 04:37:07;;;;;;;;;;;;;;;13.64;94.87;101035.94;5076529;28;19927;-54
2023/04/25 04:39:34;;;;;;;;;;;;;;;13.69;94.85;101034.25;5076170;28;19952;-53
2023/04/25 04:42:06;;;;;;;;;;;;;;;13.74;93.52;101037.16;5072067;28;19965;-55
2023/04/25 04:44:47;;;;;;;;;;;;;;;13.74;93.45;101037.16;5058586;28;19939;-56
2023/04/25 04:47:25;;;;;;;;;;;;;;;13.45;93.84;101046.53;5077410;28;19916;-54
2023/04/25 04:50:14;;;;;;;;;;;;;;;13.59;92.97;101050.81;5074178;28;19974;-51
2023/04/25 04:53:00;;;;;;;;;;;;;;;13.35;93.61;101054.97;5076005;28;19942;-56
2023/04/25 04:55:51;;;;;;;;;;;;;;;13.65;92.43;101054.53;5051628;28;19987;-56
2023/04/25 04:58:52;;;;;;;;;;;;;;;13.68;92.17;101066.72;5022004;28;19929;-52
2023/04/25 05:01:35;;;;;;;;;;;;;;;13.28;92.28;101062.22;5069321;28;19917;-54
2023/04/25 05:04:19;;;;;;;;;;;;;;;13.53;90.72;101070.47;5076688;28;19927;-53
2023/04/25 05:06:58;;;;;;;;;;;;;;;13.33;90.84;101073.97;5075633;28;19917;-55
2023/04/25 05:09:42;;;;;;;;;;;;;;;13.52;89.65;101076.06;5075992;28;19950;-55
2023/04/25 05:12:28;;;;;;;;;;;;;;;13.79;87.46;101081.38;5076079;28;19916;-58
2023/04/25 05:15:19;;;;;;;;;;;;;;;13.58;87.41;101081.41;5068099;28;20015;-52
2023/04/25 05:18:03;;;;;;;;;;;;;;;13.63;87.97;101083.47;5074508;28;19971;-51
2023/04/25 05:20:46;;;;;;;;;;;;;;;13.36;88.05;101077.28;5069550;28;19927;-53
2023/04/25 05:23:34;;;;;;;;;;;;;;;13.32;88.74;101088.44;5073707;28;19943;-56
2023/04/25 05:26:22;;;;;;;;;;;;;;;13.22;88.98;101090.72;5071987;28;19917;-52
2023/04/25 05:29:03;;;;;;;;;;;;;;;13.45;88.00;101089.50;5070186;28;19924;-54
2023/04/25 05:31:48;;;;;;;;;;;;;;;13.57;87.27;101089.69;5075318;28;19931;-56
2023/04/25 05:34:16;;;;;;;;;;;;;;;13.42;87.82;101092.59;5074955;28;19917;-55
2023/04/25 05:36:52;;;;;;;;;;;;;;;13.41;87.53;101097.13;5075036;28;19925;-54
2023/04/25 05:39:19;;;;;;;;;;;;;;;13.60;87.75;101102.72;5073210;28;19928;-53
2023/04/25 05:42:14;;;;;;;;;;;;;;;13.61;88.04;101109.75;5070982;28;19935;-54
2023/04/25 05:44:51;;;;;;;;;;;;;;;13.79;88.44;101109.06;5074951;28;19978;-53
2023/04/25 05:47:26;;;;;;;;;;;;;;;13.84;88.39;101106.63;5083794;28;19920;-50
2023/04/25 05:50:08;;;;;;;;;;;;;;;13.59;89.74;101114.50;5073824;28;19917;-52
2023/04/25 05:52:52;;;;;;;;;;;;;;;13.47;89.50;101123.19;5073937;28;19947;-54
2023/04/25 05:55:29;;;;;;;;;;;;;;;13.99;88.07;101121.66;5074681;28;19916;-54
2023/04/25 05:57:56;;;;;;;;;;;;;;;14.08;87.87;101125.78;5074350;28;19925;-52
2023/04/25 06:00:22;;;;;;;;;;;;;;;14.37;86.67;101126.28;5072125;28;19977;-50
2023/04/25 06:02:49;;;;;;;;;;;;;;;14.46;86.66;101133.06;5074271;28;19917;-54
2023/04/25 06:05:14;;;;;;;;;;;;;;;14.54;86.12;101125.81;5074226;28;19927;-49
2023/04/25 06:07:40;;;;;;;;;;;;;;;14.66;85.40;101126.75;5071988;28;19917;-53
2023/04/25 06:10:06;;;;;;;;;;;;;;;15.02;84.50;101128.03;5075251;28;19923;-49
2023/04/25 06:12:32;;;;;;;;;;;;;;;14.80;85.74;101132.09;5074537;28;19924;-49
2023/04/25 06:14:58;;;;;;;;;;;;;;;14.08;87.78;101135.69;5074329;28;19927;-51
2023/04/25 06:17:23;;;;;;;;;;;;;;;14.27;87.56;101131.28;5072370;28;19917;-56
2023/04/25 06:19:50;;;;;;;;;;;;;;;14.76;85.66;101137.09;5073106;28;19987;-54
2023/04/25 06:22:16;;;;;;;;;;;;;;;15.01;85.02;101130.91;5073887;28;19927;-55
2023/04/25 06:24:41;;;;;;;;;;;;;;;14.71;84.76;101137.72;5073909;28;20555;-52
2023/04/25 06:27:06;;;;;;;;;;;;;;;14.89;84.88;101144.25;5073373;28;19917;-51
2023/04/25 06:29:33;;;;;;;;;;;;;;;15.29;82.73;101148.53;5073982;28;19976;-55
2023/04/25 06:31:58;;;;;;;;;;;;;;;15.11;82.63;101146.59;5075082;28;19943;-54
2023/04/25 06:34:23;;;;;;;;;;;;;;;15.01;82.36;101141.69;5075284;28;19916;-55
2023/04/25 06:36:49;;;;;;;;;;;;;;;15.36;80.63;101145.78;5074003;28;19972;-53
2023/04/25 06:39:16;;;;;;;;;;;;;;;15.67;79.28;101152.97;5071228;28;20481;-55
2023/04/25 06:41:41;;;;;;;;;;;;;;;15.56;79.78;101153.69;5072511;28;19917;-55
2023/04/25 06:44:15;;;;;;;;;;;;;;;15.43;80.41;101152.78;5072234;28;19917;-53
2023/04/25 06:46:50;;;;;;;;;;;;;;;15.38;80.19;101163.41;5073445;28;19923;-52
2023/04/25 06:49:16;;;;;;;;;;;;;;;15.61;79.71;101156.56;5072865;28;19952;-52
2023/04/25 06:51:41;;;;;;;;;;;;;;;15.67;78.81;101168.31;5074505;28;19916;-52
2023/04/25 06:54:07;;;;;;;;;;;;;;;15.67;78.96;101177.25;5069721;28;19921;-54
2023/04/25 06:56:39;;;;;;;;;;;;;;;15.96;78.66;101174.09;5073176;28;19916;-53
2023/04/25 06:59:13;;;;;;;;;;;;;;;15.70;78.20;101182.19;5069793;28;19927;-50
2023/04/25 07:01:40;;;;;;;;;;;;;;;15.61;78.24;101180.84;5074250;28;19924;-51
2023/04/25 07:04:10;;;;;;;;;;;;;;;15.57;78.63;101191.22;5071589;28;19917;-56
2023/04/25 07:06:43;;;;;;;;;;;;;;;15.45;78.97;101187.56;5071936;28;19992;-53
2023/04/25 07:09:10;;;;;;;;;;;;;;;15.69;76.97;101191.31;5055002;28;19927;-56
2023/04/25 07:11:36;;;;;;;;;;;;;;;15.60;77.39;101192.66;5072997;28;19920;-53
2023/04/25 07:14:02;;;;;;;;;;;;;;;15.68;76.86;101196.94;5071643;28;19916;-52
2023/04/25 07:16:28;;;;;;;;;;;;;;;15.88;76.06;101196.75;5072958;28;19921;-52
2023/04/25 07:18:55;;;;;;;;;;;;;;;15.86;75.20;101202.38;5070223;28;19921;-54
2023/04/25 07:21:20;;;;;;;;;;;;;;;15.53;76.63;101200.81;5073092;28;19924;-55
2023/04/25 07:23:48;;;;;;;;;;;;;;;16.07;75.29;101202.22;5072960;28;19916;-55
2023/04/25 07:26:17;;;;;;;;;;;;;;;16.21;74.29;101209.09;5073109;28;19916;-52
2023/04/25 07:29:03;;;;;;;;;;;;;;;16.29;73.55;101208.84;5073959;28;19912;-51
2023/04/25 07:31:28;;;;;;;;;;;;;;;16.24;72.04;101215.94;5070759;28;19924;-53
2023/04/25 07:33:54;;;;;;;;;;;;;;;16.90;71.78;101217.00;5070210;28;19917;-53
2023/04/25 07:36:19;;;;;;;;;;;;;;;17.24;71.16;101210.34;5068411;28;19920;-56
2023/04/25 07:38:45;;;;;;;;;;;;;;;17.98;68.43;101225.34;5085065;28;19921;-55
2023/04/25 07:41:10;;;;;;;;;;;;;;;18.02;67.61;101227.38;5071955;28;19991;-54
2023/04/25 07:43:36;;;;;;;;;;;;;;;17.79;69.24;101228.19;5071938;28;19928;-52
2023/04/25 07:46:02;;;;;;;;;;;;;;;17.38;70.02;101222.59;5071330;28;19947;-54
2023/04/25 07:48:31;;;;;;;;;;;;;;;17.78;69.44;101231.94;5071332;28;20007;-52
2023/04/25 07:50:56;;;;;;;;;;;;;;;17.68;67.32;101231.69;5072809;28;19916;-54
2023/04/25 07:53:21;;;;;;;;;;;;;;;17.79;68.38;101236.31;5062952;28;19932;-54
2023/04/25 07:55:52;;;;;;;;;;;;;;;17.83;67.11;101240.19;5035155;28;19941;-55
2023/04/25 07:58:21;;;;;;;;;;;;;;;18.30;67.84;101243.97;5053276;28;20055;-52
2023/04/25 08:00:49;;;;;;;;;;;;;;;18.55;65.39;101249.06;5034998;28;19917;-55
2023/04/25 08:03:27;;;;;;;;;;;;;;;18.32;66.16;101247.25;5034858;28;19917;-51
2023/04/25 08:05:55;;;;;;;;;;;;;;;18.81;63.45;101243.38;5035565;28;19917;-51
2023/04/25 08:08:21;;;;;;;;;;;;;;;18.20;65.23;101244.56;5035007;28;20008;-53
2023/04/25 08:10:48;;;;;;;;;;;;;;;17.89;61.07;101247.34;5035186;28;19917;-50
2023/04/25 08:13:15;;;;;;;;;;;;;;;18.02;62.37;101246.31;5034842;28;19984;-54
2023/04/25 08:15:40;;;;;;;;;;;;;;;18.15;62.58;101256.09;5034798;28;19917;-55
2023/04/25 08:18:06;;;;;;;;;;;;;;;18.33;61.99;101262.44;5052398;28;19921;-50
2023/04/25 08:20:31;;;;;;;;;;;;;;;18.31;62.01;101268.06;5036055;28;19936;-54
2023/04/25 08:22:59;;;;;;;;;;;;;;;17.65;62.49;101272.72;5035476;28;19976;-55
2023/04/25 08:25:48;;;;;;;;;;;;;;;17.98;63.52;101272.19;5033872;28;19977;-55
2023/04/25 08:28:17;;;;;;;;;;;;;;;17.75;65.44;101281.91;5051647;28;19917;-53
2023/04/25 08:30:43;;;;;;;;;;;;;;;17.43;67.55;101284.91;5051448;28;19917;-52
2023/04/25 08:33:13;;;;;;;;;;;;;;;17.62;66.75;101287.53;5033768;28;19917;-51
2023/04/25 08:35:50;;;;;;;;;;;;;;;17.46;65.31;101283.59;5035380;28;19924;-53
2023/04/25 08:38:16;;;;;;;;;;;;;;;17.87;64.88;101292.75;5034559;28;19929;-52
2023/04/25 08:40:43;;;;;;;;;;;;;;;18.00;62.69;101293.59;5034446;28;20454;-54
2023/04/25 08:43:17;;;;;;;;;;;;;;;18.04;61.00;101300.22;5034672;28;19928;-52
2023/04/25 08:45:42;;;;;;;;;;;;;;;17.98;58.85;101303.81;5033879;28;19929;-56
2023/04/25 08:48:13;;;;;;;;;;;;;;;18.41;57.79;101312.69;5035974;28;19917;-55
2023/04/25 08:50:49;;;;;;;;;;;;;;;17.06;58.24;101312.81;5052151;28;19956;-53
2023/04/25 08:53:18;;;;;;;;;;;;;;;17.66;58.79;101320.34;5048815;28;19931;-53
2023/04/25 08:55:46;;;;;;;;;;;;;;;17.55;58.11;101330.91;5071136;28;19916;-54
2023/04/25 08:58:12;;;;;;;;;;;;;;;17.68;58.32;101326.34;5071064;28;20067;-57
2023/04/25 09:00:38;;;;;;;;;;;;;;;17.70;59.13;101321.53;5069754;28;19916;-54
2023/04/25 09:03:03;;;;;;;;;;;;;;;18.03;60.01;101325.63;5072262;28;19917;-54
2023/04/25 09:05:32;;;;;;;;;;;;;;;18.14;60.14;101332.94;5079823;28;19928;-53
2023/04/25 09:07:58;;;;;;;;;;;;;;;18.29;59.27;101334.34;5071880;28;19928;-55
2023/04/25 09:10:23;;;;;;;;;;;;;;;18.65;58.18;101339.75;5071108;28;19920;-52
2023/04/25 09:13:05;;;;;;;;;;;;;;;19.27;57.40;101347.28;5073011;28;19917;-55
2023/04/25 09:15:51;;;;;;;;;;;;;;;19.32;58.26;101352.00;5058764;28;19917;-50
2023/04/25 09:18:33;;;;;;;;;;;;;;;20.32;54.71;101348.00;5074071;28;19921;-51
2023/04/25 09:21:06;;;;;;;;;;;;;;;20.03;53.34;101354.34;5072403;28;19917;-54
2023/04/25 09:23:38;;;;;;;;;;;;;;;20.98;51.85;101355.44;5074390;28;20016;-54
2023/04/25 09:26:06;;;;;;;;;;;;;;;20.60;52.61;101357.09;5075938;28;19916;-53
2023/04/25 09:28:31;;;;;;;;;;;;;;;20.05;54.16;101359.53;5073702;28;19923;-51
2023/04/25 09:31:00;;;;;;;;;;;;;;;19.49;53.76;101362.88;5072914;28;19917;-56
2023/04/25 09:33:37;;;;;;;;;;;;;;;19.66;58.03;101368.34;5074580;28;19925;-52
2023/04/25 09:36:07;;;;;;;;;;;;;;;19.74;55.99;101372.53;5073183;28;19916;-52
2023/04/25 09:38:59;;;;;;;;;;;;;;;19.19;51.58;101375.59;5058605;28;19986;-51
2023/04/25 09:41:27;;;;;;;;;;;;;;;20.29;53.38;101368.31;5074197;28;19917;-51
2023/04/25 09:43:58;;;;;;;;;;;;;;;21.84;51.49;101391.19;5056119;28;19941;-53
2023/04/25 09:46:33;;;;;;;;;;;;;;;22.63;50.44;101382.56;5074496;28;19928;-50
2023/04/25 09:49:05;;;;;;;;;;;;;;;23.52;50.92;101392.75;5074331;28;19921;-52
2023/04/25 09:51:35;;;;;;;;;;;;;;;25.06;48.53;101401.94;5072740;28;19943;-53
2023/04/25 09:54:04;;;;;;;;;;;;;;;26.39;41.76;101405.19;5072097;28;19992;-56
2023/04/25 09:56:40;;;;;;;;;;;;;;;26.38;42.70;101407.13;5073464;28;19912;-54
2023/04/25 09:59:06;;;;;;;;;;;;;;;27.04;40.11;101396.53;5072709;28;19999;-54
2023/04/25 10:01:34;;;;;;;;;;;;;;;27.03;35.58;101403.13;5071703;28;19917;-56
2023/04/25 10:04:10;;;;;;;;;;;;;;;25.97;38.70;101396.47;5080898;28;19939;-53
2023/04/25 10:06:44;;;;;;;;;;;;;;;25.11;36.36;101403.00;5073596;28;19921;-55
2023/04/25 10:09:11;;;;;;;;;;;;;;;23.30;40.68;101398.44;5074908;28;19943;-52
2023/04/25 10:11:38;;;;;;;;;;;;;;;22.44;39.21;101390.31;5074035;28;19943;-54
2023/04/25 10:14:04;;;;;;;;;;;;;;;21.60;38.15;101393.41;5074768;28;19924;-55
2023/04/25 10:16:30;;;;;;;;;;;;;;;21.14;40.05;101401.84;5075022;28;19917;-55
2023/04/25 10:18:55;;;;;;;;;;;;;;;20.74;40.22;101399.13;5073837;28;19921;-55
2023/04/25 10:21:21;;;;;;;;;;;;;;;20.83;39.79;101396.03;5074428;28;19927;-53
2023/04/25 10:23:48;;;;;;;;;;;;;;;21.25;40.23;101395.47;5074157;28;19917;-53
2023/04/25 10:26:14;;;;;;;;;;;;;;;21.21;40.36;101394.31;5073135;28;20362;-57
2023/04/25 10:28:56;;;;;;;;;;;;;;;21.81;41.31;101399.88;5074631;28;19917;-55
2023/04/25 10:31:21;;;;;;;;;;;;;;;22.34;39.36;101413.69;5074175;28;20095;-51
2023/04/25 10:33:48;;;;;;;;;;;;;;;20.68;42.21;101416.44;5074073;28;19999;-53
2023/04/25 10:36:18;;;;;;;;;;;;;;;20.76;44.75;101410.59;5073993;28;19917;-57
2023/04/25 10:38:45;;;;;;;;;;;;;;;21.57;46.75;101418.41;5072861;28;19960;-55
2023/04/25 10:41:11;;;;;;;;;;;;;;;21.17;49.34;101418.50;5074211;28;19917;-56
2023/04/25 10:43:41;;;;;;;;;;;;;;;20.39;50.91;101422.00;5074373;28;19928;-56
2023/04/25 10:46:13;;;;;;;;;;;;;;;19.32;50.28;101422.50;5073561;28;19920;-54
2023/04/25 10:48:44;;;;;;;;;;;;;;;19.06;51.52;101422.78;5073243;28;19917;-53
2023/04/25 10:51:19;;;;;;;;;;;;;;;19.69;52.88;101430.25;5074051;28;19916;-56
2023/04/25 10:53:45;;;;;;;;;;;;;;;20.53;52.78;101429.78;5073650;28;19932;-53
2023/04/25 10:56:28;;;;;;;;;;;;;;;20.65;50.59;101435.97;5073999;28;19921;-57
2023/04/25 10:59:06;;;;;;;;;;;;;;;19.91;53.72;101429.59;5072723;28;20014;-54
2023/04/25 11:01:58;;;;;;;;;;;;;;;19.89;54.54;101435.25;5073449;28;19917;-53
2023/04/25 11:04:24;;;;;;;;;;;;;;;20.55;51.75;101439.34;5070983;28;19916;-52
2023/04/25 11:06:52;;;;;;;;;;;;;;;19.87;48.29;101442.81;5073633;28;19996;-51
2023/04/25 11:09:18;;;;;;;;;;;;;;;20.75;46.64;101436.09;5073847;28;19917;-57
2023/04/25 11:11:52;;;;;;;;;;;;;;;20.86;46.40;101430.84;5073998;28;19931;-52
2023/04/25 11:14:19;;;;;;;;;;;;;;;20.50;46.38;101433.84;5073623;28;20008;-53
2023/04/25 11:16:45;;;;;;;;;;;;;;;21.53;46.23;101436.31;5073512;28;19931;-54
2023/04/25 11:19:10;;;;;;;;;;;;;;;22.28;44.17;101447.44;5073347;28;19925;-54
2023/04/25 11:21:36;;;;;;;;;;;;;;;22.58;42.03;101451.50;5073366;28;19917;-52
2023/04/25 11:24:02;;;;;;;;;;;;;;;23.12;41.39;101446.06;5073639;28;19923;-53
2023/04/25 11:26:27;;;;;;;;;;;;;;;23.29;42.76;101441.25;5073158;28;19924;-52
2023/04/25 11:28:56;;;;;;;;;;;;;;;23.92;40.72;101448.50;5073577;28;19925;-52
2023/04/25 11:31:22;;;;;;;;;;;;;;;23.05;40.64;101443.59;5073189;28;19927;-53
2023/04/25 11:33:47;;;;;;;;;;;;;;;24.83;37.88;101457.28;5073508;28;19917;-51
2023/04/25 11:36:13;;;;;;;;;;;;;;;25.77;36.79;101453.88;5072323;28;19921;-56
2023/04/25 11:38:38;;;;;;;;;;;;;;;25.29;36.19;101454.38;5073215;28;19920;-52
2023/04/25 11:41:04;;;;;;;;;;;;;;;27.70;36.22;101453.59;5073346;28;19939;-55
2023/04/25 11:43:29;;;;;;;;;;;;;;;29.26;33.50;101470.97;5073256;28;19917;-55
2023/04/25 11:45:55;;;;;;;;;;;;;;;29.80;31.88;101459.34;5072799;28;19916;-56
2023/04/25 11:48:20;;;;;;;;;;;;;;;28.89;31.44;101467.31;5073662;28;19924;-52
2023/04/25 11:50:46;;;;;;;;;;;;;;;30.66;30.61;101475.97;5073224;28;19947;-54
2023/04/25 11:53:11;;;;;;;;;;;;;;;31.40;31.52;101473.63;5072604;28;19924;-56
2023/04/25 11:55:37;;;;;;;;;;;;;;;31.04;33.11;101469.16;5072980;28;19971;-55
2023/04/25 11:58:03;;;;;;;;;;;;;;;31.39;27.40;101471.22;5072282;28;19925;-50
2023/04/25 12:00:29;;;;;;;;;;;;;;;31.25;27.82;101471.31;5072926;28;19944;-53
2023/04/25 12:02:55;;;;;;;;;;;;;;;30.62;29.67;101463.97;5073739;28;19916;-57
2023/04/25 12:05:24;;;;;;;;;;;;;;;28.39;33.39;101470.69;5073458;28;19913;-53
2023/04/25 12:07:50;;;;;;;;;;;;;;;27.03;34.90;101474.50;5071643;28;19925;-55
2023/04/25 12:10:16;;;;;;;;;;;;;;;25.58;36.31;101478.34;5073203;28;19921;-55
2023/04/25 12:12:42;;;;;;;;;;;;;;;24.53;36.14;101476.16;5073331;28;19992;-53
2023/04/25 12:15:12;;;;;;;;;;;;;;;22.61;37.88;101477.41;5072970;28;19917;-56
2023/04/25 12:17:41;;;;;;;;;;;;;;;21.84;40.07;101472.88;5072935;28;19916;-55
2023/04/25 12:20:07;;;;;;;;;;;;;;;22.31;41.46;101481.47;5073138;28;19925;-56
2023/04/25 12:22:33;;;;;;;;;;;;;;;21.51;43.75;101477.38;5073072;28;19996;-54
2023/04/25 12:24:59;;;;;;;;;;;;;;;22.27;42.28;101483.94;5073094;28;19928;-54
2023/04/25 12:27:25;;;;;;;;;;;;;;;21.83;40.45;101484.84;5072941;28;19935;-56
2023/04/25 12:29:52;;;;;;;;;;;;;;;22.09;39.86;101481.56;5072905;28;19917;-55
2023/04/25 12:32:18;;;;;;;;;;;;;;;22.52;38.55;101484.41;5072993;28;19928;-53
2023/04/25 12:34:43;;;;;;;;;;;;;;;24.57;36.57;101480.00;5073055;28;19916;-55
2023/04/25 12:37:10;;;;;;;;;;;;;;;25.99;34.29;101482.78;5073259;28;19916;-54
2023/04/25 12:39:35;;;;;;;;;;;;;;;27.19;35.77;101490.75;5072924;28;19947;-54
2023/04/25 12:42:00;;;;;;;;;;;;;;;28.26;32.65;101492.34;5073186;28;19917;-55
2023/04/25 12:44:26;;;;;;;;;;;;;;;28.74;31.87;101507.75;5073145;28;19920;-56